sensor_id;sensor_type;location;lat;lon;timestamp;P1;durP1;ratioP1;P2;durP2;ratioP2
34030;SDS011;20319;28.466;-16.274;2024-02-16T00:00:23;3.03;;;1.40;;
34030;SDS011;20319;28.466;-16.274;2024-02-16T00:02:50;4.60;;;1.10;;
34030;SDS011;20319;28.466;-16.274;2024-02-16T00:05:16;5.93;;;1.13;;
34030;SDS011;20319;28.466;-16.274;2024-02-16T00:07:42;4.10;;;1.08;;
34030;SDS011;20319;28.466;-16.274;2024-02-16T00:10:08;3.63;;;1.48;;
34030;SDS011;20319;28.466;-16.274;2024-02-16T00:12:34;4.88;;;1.20;;
34030;SDS011;20319;28.466;-16.274;2024-02-16T00:15:00;3.25;;;1.00;;
34030;SDS011;20319;28.466;-16.274;2024-02-16T00:17:27;3.00;;;0.88;;
34030;SDS011;20319;28.466;-16.274;2024-02-16T00:19:53;1.33;;;0.75;;
34030;SDS011;20319;28.466;-16.274;2024-02-16T00:22:19;3.67;;;1.13;;
34030;SDS011;20319;28.466;-16.274;2024-02-16T00:24:45;2.75;;;1.00;;
34030;SDS011;20319;28.466;-16.274;2024-02-16T00:27:11;4.05;;;1.10;;
34030;SDS011;20319;28.466;-16.274;2024-02-16T00:29:36;4.65;;;1.20;;
34030;SDS011;20319;28.466;-16.274;2024-02-16T00:32:04;4.38;;;0.88;;
34030;SDS011;20319;28.466;-16.274;2024-02-16T00:34:31;2.75;;;0.85;;
34030;SDS011;20319;28.466;-16.274;2024-02-16T00:36:57;3.97;;;1.17;;
34030;SDS011;20319;28.466;-16.274;2024-02-16T00:39:23;5.03;;;1.10;;
34030;SDS011;20319;28.466;-16.274;2024-02-16T00:41:50;3.90;;;1.00;;
34030;SDS011;20319;28.466;-16.274;2024-02-16T00:44:16;4.10;;;1.08;;
34030;SDS011;20319;28.466;-16.274;2024-02-16T00:46:42;3.22;;;0.90;;
34030;SDS011;20319;28.466;-16.274;2024-02-16T00:49:08;4.13;;;0.93;;
34030;SDS011;20319;28.466;-16.274;2024-02-16T00:51:35;5.55;;;1.05;;
34030;SDS011;20319;28.466;-16.274;2024-02-16T00:54:04;5.35;;;1.23;;
34030;SDS011;20319;28.466;-16.274;2024-02-16T00:56:30;3.83;;;1.05;;
34030;SDS011;20319;28.466;-16.274;2024-02-16T00:58:57;3.72;;;0.98;;
34030;SDS011;20319;28.466;-16.274;2024-02-16T01:01:23;3.33;;;1.10;;
34030;SDS011;20319;28.466;-16.274;2024-02-16T01:03:51;4.00;;;1.10;;
34030;SDS011;20319;28.466;-16.274;2024-02-16T01:06:19;3.63;;;0.95;;
34030;SDS011;20319;28.466;-16.274;2024-02-16T01:08:45;2.60;;;0.80;;
34030;SDS011;20319;28.466;-16.274;2024-02-16T01:11:11;3.97;;;1.02;;
34030;SDS011;20319;28.466;-16.274;2024-02-16T01:13:38;3.30;;;1.15;;
34030;SDS011;20319;28.466;-16.274;2024-02-16T01:16:05;2.35;;;0.90;;
34030;SDS011;20319;28.466;-16.274;2024-02-16T01:18:31;4.80;;;0.82;;
34030;SDS011;20319;28.466;-16.274;2024-02-16T01:20:58;5.22;;;1.42;;
34030;SDS011;20319;28.466;-16.274;2024-02-16T01:23:24;1.38;;;0.90;;
34030;SDS011;20319;28.466;-16.274;2024-02-16T01:25:50;3.25;;;0.80;;
34030;SDS011;20319;28.466;-16.274;2024-02-16T01:28:15;3.80;;;1.23;;
34030;SDS011;20319;28.466;-16.274;2024-02-16T01:30:41;4.93;;;1.08;;
34030;SDS011;20319;28.466;-16.274;2024-02-16T01:33:07;2.35;;;0.93;;
34030;SDS011;20319;28.466;-16.274;2024-02-16T01:35:33;5.30;;;1.60;;
34030;SDS011;20319;28.466;-16.274;2024-02-16T01:37:59;3.20;;;1.15;;
34030;SDS011;20319;28.466;-16.274;2024-02-16T01:40:25;7.88;;;2.05;;
34030;SDS011;20319;28.466;-16.274;2024-02-16T01:42:51;3.88;;;1.42;;
34030;SDS011;20319;28.466;-16.274;2024-02-16T01:45:23;5.38;;;1.58;;
34030;SDS011;20319;28.466;-16.274;2024-02-16T01:47:50;6.13;;;1.77;;
34030;SDS011;20319;28.466;-16.274;2024-02-16T01:50:17;5.07;;;1.45;;
34030;SDS011;20319;28.466;-16.274;2024-02-16T01:52:44;8.70;;;1.90;;
34030;SDS011;20319;28.466;-16.274;2024-02-16T01:55:11;10.18;;;1.85;;
34030;SDS011;20319;28.466;-16.274;2024-02-16T01:57:47;5.03;;;1.92;;
34030;SDS011;20319;28.466;-16.274;2024-02-16T02:00:14;8.90;;;1.80;;
34030;SDS011;20319;28.466;-16.274;2024-02-16T02:02:45;4.85;;;1.65;;
34030;SDS011;20319;28.466;-16.274;2024-02-16T02:05:11;9.73;;;2.00;;
34030;SDS011;20319;28.466;-16.274;2024-02-16T02:07:38;5.22;;;1.55;;
34030;SDS011;20319;28.466;-16.274;2024-02-16T02:10:04;7.07;;;1.58;;
34030;SDS011;20319;28.466;-16.274;2024-02-16T02:12:30;4.68;;;1.83;;
34030;SDS011;20319;28.466;-16.274;2024-02-16T02:14:55;8.20;;;1.80;;
34030;SDS011;20319;28.466;-16.274;2024-02-16T02:17:21;6.80;;;1.80;;
34030;SDS011;20319;28.466;-16.274;2024-02-16T02:19:47;6.07;;;1.63;;
34030;SDS011;20319;28.466;-16.274;2024-02-16T02:22:16;4.78;;;1.77;;
34030;SDS011;20319;28.466;-16.274;2024-02-16T02:24:45;8.82;;;1.67;;
34030;SDS011;20319;28.466;-16.274;2024-02-16T02:27:12;4.72;;;1.73;;
34030;SDS011;20319;28.466;-16.274;2024-02-16T02:29:38;6.13;;;1.80;;
34030;SDS011;20319;28.466;-16.274;2024-02-16T02:32:05;8.20;;;2.00;;
34030;SDS011;20319;28.466;-16.274;2024-02-16T02:34:31;8.63;;;1.80;;
34030;SDS011;20319;28.466;-16.274;2024-02-16T02:36:57;5.72;;;1.98;;
34030;SDS011;20319;28.466;-16.274;2024-02-16T02:39:22;7.40;;;1.80;;
34030;SDS011;20319;28.466;-16.274;2024-02-16T02:41:48;5.60;;;1.75;;
34030;SDS011;20319;28.466;-16.274;2024-02-16T02:44:13;5.25;;;1.67;;
34030;SDS011;20319;28.466;-16.274;2024-02-16T02:46:39;7.15;;;1.67;;
34030;SDS011;20319;28.466;-16.274;2024-02-16T02:49:05;7.10;;;1.92;;
34030;SDS011;20319;28.466;-16.274;2024-02-16T02:51:31;6.82;;;1.75;;
34030;SDS011;20319;28.466;-16.274;2024-02-16T02:53:56;7.38;;;1.73;;
34030;SDS011;20319;28.466;-16.274;2024-02-16T02:56:22;5.90;;;1.90;;
34030;SDS011;20319;28.466;-16.274;2024-02-16T02:58:47;6.32;;;1.83;;
34030;SDS011;20319;28.466;-16.274;2024-02-16T03:01:13;7.50;;;2.17;;
34030;SDS011;20319;28.466;-16.274;2024-02-16T03:03:39;5.00;;;1.88;;
34030;SDS011;20319;28.466;-16.274;2024-02-16T03:06:06;5.80;;;2.10;;
34030;SDS011;20319;28.466;-16.274;2024-02-16T03:08:32;3.38;;;1.75;;
34030;SDS011;20319;28.466;-16.274;2024-02-16T03:10:58;6.28;;;1.70;;
34030;SDS011;20319;28.466;-16.274;2024-02-16T03:13:25;6.30;;;1.63;;
34030;SDS011;20319;28.466;-16.274;2024-02-16T03:15:52;9.23;;;2.13;;
34030;SDS011;20319;28.466;-16.274;2024-02-16T03:18:18;10.50;;;2.30;;
34030;SDS011;20319;28.466;-16.274;2024-02-16T03:20:44;4.55;;;1.60;;
34030;SDS011;20319;28.466;-16.274;2024-02-16T03:23:13;7.55;;;1.92;;
34030;SDS011;20319;28.466;-16.274;2024-02-16T03:25:38;4.65;;;1.73;;
34030;SDS011;20319;28.466;-16.274;2024-02-16T03:28:04;4.55;;;1.70;;
34030;SDS011;20319;28.466;-16.274;2024-02-16T03:30:30;7.70;;;1.75;;
34030;SDS011;20319;28.466;-16.274;2024-02-16T03:32:56;7.75;;;1.80;;
34030;SDS011;20319;28.466;-16.274;2024-02-16T03:35:22;6.72;;;1.77;;
34030;SDS011;20319;28.466;-16.274;2024-02-16T03:37:47;3.92;;;1.70;;
34030;SDS011;20319;28.466;-16.274;2024-02-16T03:40:13;6.53;;;1.85;;
34030;SDS011;20319;28.466;-16.274;2024-02-16T03:42:39;7.97;;;1.98;;
34030;SDS011;20319;28.466;-16.274;2024-02-16T03:45:06;6.30;;;1.63;;
34030;SDS011;20319;28.466;-16.274;2024-02-16T03:47:32;5.45;;;1.75;;
34030;SDS011;20319;28.466;-16.274;2024-02-16T03:49:58;4.55;;;1.50;;
34030;SDS011;20319;28.466;-16.274;2024-02-16T03:52:24;7.28;;;1.60;;
34030;SDS011;20319;28.466;-16.274;2024-02-16T03:54:50;4.35;;;1.50;;
34030;SDS011;20319;28.466;-16.274;2024-02-16T03:57:16;4.75;;;1.60;;
34030;SDS011;20319;28.466;-16.274;2024-02-16T03:59:45;4.30;;;1.60;;
34030;SDS011;20319;28.466;-16.274;2024-02-16T04:02:11;7.00;;;1.85;;
34030;SDS011;20319;28.466;-16.274;2024-02-16T04:04:40;6.22;;;1.90;;
34030;SDS011;20319;28.466;-16.274;2024-02-16T04:07:06;4.07;;;1.70;;
34030;SDS011;20319;28.466;-16.274;2024-02-16T04:09:33;7.30;;;1.95;;
34030;SDS011;20319;28.466;-16.274;2024-02-16T04:11:59;4.60;;;1.90;;
34030;SDS011;20319;28.466;-16.274;2024-02-16T04:14:26;5.93;;;1.73;;
34030;SDS011;20319;28.466;-16.274;2024-02-16T04:16:51;7.45;;;1.80;;
34030;SDS011;20319;28.466;-16.274;2024-02-16T04:19:17;4.13;;;1.73;;
34030;SDS011;20319;28.466;-16.274;2024-02-16T04:21:43;8.30;;;2.13;;
34030;SDS011;20319;28.466;-16.274;2024-02-16T04:24:09;7.18;;;2.00;;
34030;SDS011;20319;28.466;-16.274;2024-02-16T04:26:34;7.72;;;1.88;;
34030;SDS011;20319;28.466;-16.274;2024-02-16T04:29:00;3.90;;;1.80;;
34030;SDS011;20319;28.466;-16.274;2024-02-16T04:31:26;6.55;;;1.88;;
34030;SDS011;20319;28.466;-16.274;2024-02-16T04:33:51;3.67;;;1.50;;
34030;SDS011;20319;28.466;-16.274;2024-02-16T04:36:18;4.75;;;1.63;;
34030;SDS011;20319;28.466;-16.274;2024-02-16T04:38:44;8.05;;;1.90;;
34030;SDS011;20319;28.466;-16.274;2024-02-16T04:41:09;7.93;;;2.28;;
34030;SDS011;20319;28.466;-16.274;2024-02-16T04:43:35;6.13;;;1.90;;
34030;SDS011;20319;28.466;-16.274;2024-02-16T04:46:00;5.88;;;1.80;;
34030;SDS011;20319;28.466;-16.274;2024-02-16T04:48:26;6.95;;;1.80;;
34030;SDS011;20319;28.466;-16.274;2024-02-16T04:50:52;6.03;;;2.00;;
34030;SDS011;20319;28.466;-16.274;2024-02-16T04:53:17;4.78;;;1.80;;
34030;SDS011;20319;28.466;-16.274;2024-02-16T04:55:43;5.68;;;1.60;;
34030;SDS011;20319;28.466;-16.274;2024-02-16T04:58:09;6.03;;;2.00;;
34030;SDS011;20319;28.466;-16.274;2024-02-16T05:00:35;4.32;;;2.00;;
34030;SDS011;20319;28.466;-16.274;2024-02-16T05:03:02;5.03;;;1.58;;
34030;SDS011;20319;28.466;-16.274;2024-02-16T05:05:28;5.90;;;1.92;;
34030;SDS011;20319;28.466;-16.274;2024-02-16T05:07:53;4.30;;;1.88;;
34030;SDS011;20319;28.466;-16.274;2024-02-16T05:10:19;4.65;;;1.90;;
34030;SDS011;20319;28.466;-16.274;2024-02-16T05:12:45;5.72;;;1.60;;
34030;SDS011;20319;28.466;-16.274;2024-02-16T05:15:11;7.13;;;1.80;;
34030;SDS011;20319;28.466;-16.274;2024-02-16T05:17:40;5.28;;;2.03;;
34030;SDS011;20319;28.466;-16.274;2024-02-16T05:20:12;5.18;;;1.40;;
34030;SDS011;20319;28.466;-16.274;2024-02-16T05:22:44;5.45;;;1.85;;
34030;SDS011;20319;28.466;-16.274;2024-02-16T05:25:11;5.00;;;1.58;;
34030;SDS011;20319;28.466;-16.274;2024-02-16T05:27:37;4.60;;;1.88;;
34030;SDS011;20319;28.466;-16.274;2024-02-16T05:30:05;3.70;;;1.52;;
34030;SDS011;20319;28.466;-16.274;2024-02-16T05:32:35;5.38;;;1.77;;
34030;SDS011;20319;28.466;-16.274;2024-02-16T05:35:02;6.75;;;1.63;;
34030;SDS011;20319;28.466;-16.274;2024-02-16T05:37:36;5.35;;;1.80;;
34030;SDS011;20319;28.466;-16.274;2024-02-16T05:40:17;4.28;;;1.73;;
34030;SDS011;20319;28.466;-16.274;2024-02-16T05:42:54;4.95;;;1.60;;
34030;SDS011;20319;28.466;-16.274;2024-02-16T14:23:51;4.07;;;1.35;;
34030;SDS011;20319;28.466;-16.274;2024-02-16T14:26:17;3.92;;;1.13;;
34030;SDS011;20319;28.466;-16.274;2024-02-16T14:28:44;6.30;;;1.42;;
34030;SDS011;20319;28.466;-16.274;2024-02-16T14:31:10;2.88;;;1.00;;
34030;SDS011;20319;28.466;-16.274;2024-02-16T14:33:38;6.05;;;1.42;;
34030;SDS011;20319;28.466;-16.274;2024-02-16T14:36:04;5.68;;;1.50;;
34030;SDS011;20319;28.466;-16.274;2024-02-16T14:38:30;3.42;;;1.52;;
34030;SDS011;20319;28.466;-16.274;2024-02-16T14:40:55;5.72;;;1.63;;
34030;SDS011;20319;28.466;-16.274;2024-02-16T14:43:22;7.45;;;1.77;;
34030;SDS011;20319;28.466;-16.274;2024-02-16T14:45:48;7.18;;;1.50;;
34030;SDS011;20319;28.466;-16.274;2024-02-16T14:48:13;8.98;;;1.63;;
34030;SDS011;20319;28.466;-16.274;2024-02-16T14:50:39;7.68;;;1.50;;
34030;SDS011;20319;28.466;-16.274;2024-02-16T14:53:05;9.20;;;2.00;;
34030;SDS011;20319;28.466;-16.274;2024-02-16T14:55:31;5.15;;;1.33;;
34030;SDS011;20319;28.466;-16.274;2024-02-16T14:57:57;8.80;;;1.55;;
34030;SDS011;20319;28.466;-16.274;2024-02-16T15:00:23;4.75;;;1.25;;
34030;SDS011;20319;28.466;-16.274;2024-02-16T15:02:49;8.23;;;1.90;;
34030;SDS011;20319;28.466;-16.274;2024-02-16T15:05:15;7.45;;;2.05;;
34030;SDS011;20319;28.466;-16.274;2024-02-16T15:07:41;7.53;;;1.92;;
34030;SDS011;20319;28.466;-16.274;2024-02-16T15:10:06;7.80;;;1.60;;
34030;SDS011;20319;28.466;-16.274;2024-02-16T15:12:35;5.63;;;2.00;;
34030;SDS011;20319;28.466;-16.274;2024-02-16T15:15:01;7.63;;;1.63;;
34030;SDS011;20319;28.466;-16.274;2024-02-16T15:17:27;9.05;;;1.73;;
34030;SDS011;20319;28.466;-16.274;2024-02-16T15:19:52;5.72;;;2.13;;
34030;SDS011;20319;28.466;-16.274;2024-02-16T15:22:18;7.85;;;1.60;;
34030;SDS011;20319;28.466;-16.274;2024-02-16T15:24:43;7.07;;;1.95;;
34030;SDS011;20319;28.466;-16.274;2024-02-16T15:27:09;6.90;;;2.05;;
34030;SDS011;20319;28.466;-16.274;2024-02-16T15:29:35;8.93;;;1.70;;
34030;SDS011;20319;28.466;-16.274;2024-02-16T15:32:01;10.00;;;1.88;;
34030;SDS011;20319;28.466;-16.274;2024-02-16T15:34:27;7.63;;;1.83;;
34030;SDS011;20319;28.466;-16.274;2024-02-16T15:36:52;8.65;;;1.70;;
34030;SDS011;20319;28.466;-16.274;2024-02-16T15:39:20;6.28;;;1.80;;
34030;SDS011;20319;28.466;-16.274;2024-02-16T15:41:45;7.60;;;1.80;;
34030;SDS011;20319;28.466;-16.274;2024-02-16T15:44:11;8.50;;;1.85;;
34030;SDS011;20319;28.466;-16.274;2024-02-16T15:46:37;5.47;;;1.50;;
34030;SDS011;20319;28.466;-16.274;2024-02-16T15:49:07;5.68;;;1.67;;
34030;SDS011;20319;28.466;-16.274;2024-02-16T15:51:33;7.95;;;1.35;;
34030;SDS011;20319;28.466;-16.274;2024-02-16T15:53:58;6.63;;;1.95;;
34030;SDS011;20319;28.466;-16.274;2024-02-16T15:56:26;6.97;;;1.50;;
34030;SDS011;20319;28.466;-16.274;2024-02-16T15:58:52;6.72;;;1.85;;
34030;SDS011;20319;28.466;-16.274;2024-02-16T16:01:24;4.68;;;1.30;;
34030;SDS011;20319;28.466;-16.274;2024-02-16T16:03:53;4.78;;;1.50;;
34030;SDS011;20319;28.466;-16.274;2024-02-16T16:06:19;8.43;;;1.95;;
34030;SDS011;20319;28.466;-16.274;2024-02-16T16:08:44;7.25;;;1.60;;
34030;SDS011;20319;28.466;-16.274;2024-02-16T16:11:10;4.63;;;1.70;;
34030;SDS011;20319;28.466;-16.274;2024-02-16T16:13:36;8.43;;;1.95;;
34030;SDS011;20319;28.466;-16.274;2024-02-16T16:16:03;7.68;;;1.85;;
34030;SDS011;20319;28.466;-16.274;2024-02-16T16:18:29;8.32;;;2.20;;
34030;SDS011;20319;28.466;-16.274;2024-02-16T16:21:01;4.88;;;1.52;;
34030;SDS011;20319;28.466;-16.274;2024-02-16T18:28:25;7.20;;;1.70;;
34030;SDS011;20319;28.466;-16.274;2024-02-16T18:30:51;10.48;;;1.88;;
34030;SDS011;20319;28.466;-16.274;2024-02-16T18:33:18;10.65;;;1.88;;
34030;SDS011;20319;28.466;-16.274;2024-02-16T18:35:46;8.02;;;1.90;;
34030;SDS011;20319;28.466;-16.274;2024-02-16T18:38:11;7.05;;;1.63;;
34030;SDS011;20319;28.466;-16.274;2024-02-16T18:40:37;6.45;;;1.65;;
34030;SDS011;20319;28.466;-16.274;2024-02-16T18:43:03;7.88;;;1.88;;
34030;SDS011;20319;28.466;-16.274;2024-02-16T18:45:29;6.65;;;1.55;;
34030;SDS011;20319;28.466;-16.274;2024-02-16T18:47:54;3.55;;;1.50;;
34030;SDS011;20319;28.466;-16.274;2024-02-16T18:50:21;5.82;;;1.60;;
34030;SDS011;20319;28.466;-16.274;2024-02-16T18:52:46;9.27;;;1.70;;
34030;SDS011;20319;28.466;-16.274;2024-02-16T18:55:12;5.38;;;1.67;;
34030;SDS011;20319;28.466;-16.274;2024-02-16T18:57:38;5.45;;;1.90;;
34030;SDS011;20319;28.466;-16.274;2024-02-16T19:00:04;8.02;;;1.98;;
34030;SDS011;20319;28.466;-16.274;2024-02-16T19:02:30;10.15;;;1.70;;
34030;SDS011;20319;28.466;-16.274;2024-02-16T19:04:56;5.85;;;1.70;;
34030;SDS011;20319;28.466;-16.274;2024-02-16T19:07:22;7.13;;;1.90;;
34030;SDS011;20319;28.466;-16.274;2024-02-16T19:09:49;8.93;;;1.60;;
34030;SDS011;20319;28.466;-16.274;2024-02-16T19:12:16;6.03;;;1.73;;
34030;SDS011;20319;28.466;-16.274;2024-02-16T19:14:42;6.45;;;1.60;;
34030;SDS011;20319;28.466;-16.274;2024-02-16T19:17:08;4.32;;;1.42;;
34030;SDS011;20319;28.466;-16.274;2024-02-16T19:19:33;8.77;;;1.60;;
34030;SDS011;20319;28.466;-16.274;2024-02-16T19:22:00;7.05;;;1.83;;
34030;SDS011;20319;28.466;-16.274;2024-02-16T19:24:26;9.52;;;1.77;;
34030;SDS011;20319;28.466;-16.274;2024-02-16T19:26:52;8.82;;;1.95;;
34030;SDS011;20319;28.466;-16.274;2024-02-16T19:29:17;6.35;;;1.55;;
34030;SDS011;20319;28.466;-16.274;2024-02-16T19:31:43;6.85;;;1.90;;
34030;SDS011;20319;28.466;-16.274;2024-02-16T19:34:09;7.53;;;1.48;;
34030;SDS011;20319;28.466;-16.274;2024-02-16T19:36:34;7.07;;;1.77;;
34030;SDS011;20319;28.466;-16.274;2024-02-16T19:39:00;9.13;;;2.10;;
34030;SDS011;20319;28.466;-16.274;2024-02-16T19:41:25;3.45;;;1.40;;
34030;SDS011;20319;28.466;-16.274;2024-02-16T19:43:52;6.63;;;1.50;;
34030;SDS011;20319;28.466;-16.274;2024-02-16T19:46:17;7.43;;;1.80;;
34030;SDS011;20319;28.466;-16.274;2024-02-16T19:48:43;5.85;;;2.10;;
34030;SDS011;20319;28.466;-16.274;2024-02-16T19:51:08;9.25;;;1.92;;
34030;SDS011;20319;28.466;-16.274;2024-02-16T19:53:34;6.97;;;1.75;;
34030;SDS011;20319;28.466;-16.274;2024-02-16T19:56:00;7.47;;;1.90;;
34030;SDS011;20319;28.466;-16.274;2024-02-16T19:58:25;5.32;;;1.60;;
34030;SDS011;20319;28.466;-16.274;2024-02-16T20:00:51;8.73;;;2.15;;
34030;SDS011;20319;28.466;-16.274;2024-02-16T20:03:17;8.85;;;2.15;;
34030;SDS011;20319;28.466;-16.274;2024-02-16T20:05:44;11.77;;;2.80;;
34030;SDS011;20319;28.466;-16.274;2024-02-16T20:08:10;5.97;;;1.75;;
34030;SDS011;20319;28.466;-16.274;2024-02-16T20:10:37;8.20;;;2.78;;
34030;SDS011;20319;28.466;-16.274;2024-02-16T20:13:03;7.43;;;1.58;;
34030;SDS011;20319;28.466;-16.274;2024-02-16T20:15:29;7.63;;;1.70;;
34030;SDS011;20319;28.466;-16.274;2024-02-16T20:17:55;5.72;;;1.75;;
34030;SDS011;20319;28.466;-16.274;2024-02-16T20:20:26;6.53;;;1.67;;
34030;SDS011;20319;28.466;-16.274;2024-02-16T20:22:53;7.95;;;2.13;;
34030;SDS011;20319;28.466;-16.274;2024-02-16T20:25:19;6.05;;;1.55;;
34030;SDS011;20319;28.466;-16.274;2024-02-16T20:27:47;5.68;;;1.77;;
34030;SDS011;20319;28.466;-16.274;2024-02-16T20:30:13;10.27;;;2.28;;
34030;SDS011;20319;28.466;-16.274;2024-02-16T20:32:39;7.13;;;2.08;;
34030;SDS011;20319;28.466;-16.274;2024-02-16T20:35:08;8.88;;;2.00;;
34030;SDS011;20319;28.466;-16.274;2024-02-16T20:37:34;5.10;;;1.80;;
34030;SDS011;20319;28.466;-16.274;2024-02-16T20:40:00;8.57;;;2.08;;
34030;SDS011;20319;28.466;-16.274;2024-02-16T20:42:26;9.40;;;2.20;;
34030;SDS011;20319;28.466;-16.274;2024-02-16T20:44:52;9.75;;;2.30;;
34030;SDS011;20319;28.466;-16.274;2024-02-16T20:47:17;8.75;;;1.70;;
34030;SDS011;20319;28.466;-16.274;2024-02-16T20:49:43;8.18;;;1.70;;
34030;SDS011;20319;28.466;-16.274;2024-02-16T20:52:09;6.45;;;1.85;;
34030;SDS011;20319;28.466;-16.274;2024-02-16T20:54:34;12.85;;;1.83;;
34030;SDS011;20319;28.466;-16.274;2024-02-16T20:57:02;10.95;;;2.03;;
34030;SDS011;20319;28.466;-16.274;2024-02-16T20:59:29;9.10;;;1.83;;
34030;SDS011;20319;28.466;-16.274;2024-02-16T21:01:55;9.48;;;2.03;;
34030;SDS011;20319;28.466;-16.274;2024-02-16T21:04:30;8.82;;;2.20;;
34030;SDS011;20319;28.466;-16.274;2024-02-16T21:07:00;9.70;;;2.25;;
34030;SDS011;20319;28.466;-16.274;2024-02-16T21:09:27;8.65;;;2.08;;
34030;SDS011;20319;28.466;-16.274;2024-02-16T21:11:56;12.13;;;2.10;;
34030;SDS011;20319;28.466;-16.274;2024-02-16T21:14:23;8.60;;;1.73;;
34030;SDS011;20319;28.466;-16.274;2024-02-16T21:16:49;14.38;;;2.05;;
34030;SDS011;20319;28.466;-16.274;2024-02-16T21:19:15;11.98;;;2.03;;
34030;SDS011;20319;28.466;-16.274;2024-02-16T21:21:42;8.35;;;1.75;;
34030;SDS011;20319;28.466;-16.274;2024-02-16T21:24:10;6.60;;;1.80;;
34030;SDS011;20319;28.466;-16.274;2024-02-16T21:26:36;6.03;;;1.83;;
34030;SDS011;20319;28.466;-16.274;2024-02-16T21:29:01;10.05;;;1.95;;
34030;SDS011;20319;28.466;-16.274;2024-02-16T21:31:30;8.93;;;2.30;;
34030;SDS011;20319;28.466;-16.274;2024-02-16T21:33:56;4.53;;;1.80;;
34030;SDS011;20319;28.466;-16.274;2024-02-16T21:36:21;8.88;;;2.20;;
34030;SDS011;20319;28.466;-16.274;2024-02-16T21:38:48;5.63;;;1.70;;
34030;SDS011;20319;28.466;-16.274;2024-02-16T21:41:14;7.53;;;1.73;;
34030;SDS011;20319;28.466;-16.274;2024-02-16T21:43:40;7.10;;;1.85;;
34030;SDS011;20319;28.466;-16.274;2024-02-16T21:46:06;9.07;;;2.00;;
34030;SDS011;20319;28.466;-16.274;2024-02-16T21:48:33;8.10;;;2.00;;
34030;SDS011;20319;28.466;-16.274;2024-02-16T21:50:58;7.90;;;1.90;;
34030;SDS011;20319;28.466;-16.274;2024-02-16T21:53:24;9.90;;;1.90;;
34030;SDS011;20319;28.466;-16.274;2024-02-16T21:55:50;8.93;;;2.08;;
34030;SDS011;20319;28.466;-16.274;2024-02-16T21:58:15;14.02;;;2.30;;
34030;SDS011;20319;28.466;-16.274;2024-02-16T22:00:41;6.47;;;2.30;;
34030;SDS011;20319;28.466;-16.274;2024-02-16T22:03:07;8.20;;;1.92;;
34030;SDS011;20319;28.466;-16.274;2024-02-16T22:05:34;6.95;;;1.95;;
34030;SDS011;20319;28.466;-16.274;2024-02-16T22:07:59;12.60;;;2.40;;
34030;SDS011;20319;28.466;-16.274;2024-02-16T22:10:25;6.28;;;2.17;;
34030;SDS011;20319;28.466;-16.274;2024-02-16T22:12:51;9.85;;;2.60;;
34030;SDS011;20319;28.466;-16.274;2024-02-16T22:15:16;7.03;;;1.88;;
34030;SDS011;20319;28.466;-16.274;2024-02-16T22:17:42;10.35;;;2.13;;
34030;SDS011;20319;28.466;-16.274;2024-02-16T22:20:08;8.98;;;1.80;;
34030;SDS011;20319;28.466;-16.274;2024-02-16T22:22:34;11.82;;;2.17;;
34030;SDS011;20319;28.466;-16.274;2024-02-16T22:24:59;11.88;;;2.03;;
34030;SDS011;20319;28.466;-16.274;2024-02-16T22:27:25;11.23;;;2.08;;
34030;SDS011;20319;28.466;-16.274;2024-02-16T22:29:50;8.82;;;2.33;;
